createdAt,value
2018-12-29T00:00:02.069Z,2.50
2018-12-29T00:01:02.062Z,2.51
2018-12-29T00:02:02.059Z,2.47
2018-12-29T00:03:02.033Z,2.55
2018-12-29T00:04:02.022Z,2.48
2018-12-29T00:05:02.011Z,2.47
2018-12-29T00:06:02.000Z,2.55
2018-12-29T00:07:02.009Z,2.55
2018-12-29T00:08:01.989Z,2.56
2018-12-29T00:09:01.966Z,2.53
2018-12-29T00:10:01.956Z,2.61
2018-12-29T00:11:01.943Z,2.62
2018-12-29T00:12:01.948Z,2.65
2018-12-29T00:13:01.922Z,2.62
2018-12-29T00:14:01.911Z,2.69
2018-12-29T00:15:01.898Z,2.63
2018-12-29T00:16:01.887Z,2.69
2018-12-29T00:17:01.887Z,2.74
2018-12-29T00:18:01.869Z,2.73
2018-12-29T00:19:01.853Z,2.74
2018-12-29T00:20:01.838Z,2.81
2018-12-29T00:21:01.827Z,2.79
2018-12-29T00:22:01.833Z,2.86
2018-12-29T00:23:01.804Z,2.87
2018-12-29T00:24:01.796Z,2.90
2018-12-29T00:25:01.784Z,2.99
2018-12-29T00:26:01.770Z,3.01
2018-12-29T00:27:01.774Z,2.98
2018-12-29T00:28:01.747Z,3.10
2018-12-29T00:29:01.737Z,3.08
2018-12-29T00:30:01.730Z,3.17
2018-12-29T00:31:01.715Z,3.16
2018-12-29T00:32:01.721Z,3.16
2018-12-29T00:33:01.694Z,3.16
2018-12-29T00:34:01.684Z,3.16
2018-12-29T00:35:01.668Z,3.16
2018-12-29T00:36:01.662Z,3.17
2018-12-29T00:37:01.662Z,3.13
2018-12-29T00:38:01.638Z,3.19
2018-12-29T00:39:01.626Z,3.12
2018-12-29T00:40:01.620Z,3.20
2018-12-29T00:41:01.602Z,3.12
2018-12-29T00:42:01.606Z,3.13
2018-12-29T00:43:01.578Z,3.15
2018-12-29T00:44:01.571Z,3.15
2018-12-29T00:45:02.745Z,3.12
2018-12-29T00:46:01.545Z,3.17
2018-12-29T00:47:01.552Z,3.15
2018-12-29T00:48:01.528Z,3.08
2018-12-29T00:49:01.510Z,3.15
2018-12-29T00:50:01.508Z,3.15
2018-12-29T00:51:01.503Z,3.10
2018-12-29T00:52:01.496Z,3.07
2018-12-29T00:53:01.468Z,3.12
2018-12-29T00:54:01.453Z,3.12
2018-12-29T00:55:01.460Z,3.07
2018-12-29T00:56:01.430Z,3.07
2018-12-29T00:57:01.439Z,3.08
2018-12-29T00:58:01.427Z,3.12
2018-12-29T00:59:01.397Z,3.17
2018-12-29T01:00:01.390Z,3.13
2018-12-29T01:01:01.374Z,3.17
2018-12-29T01:02:01.380Z,3.05
2018-12-29T01:03:01.352Z,3.12
2018-12-29T01:04:01.340Z,3.10
2018-12-29T01:05:01.334Z,3.12
2018-12-29T01:06:01.317Z,3.05
2018-12-29T01:07:01.318Z,3.13
2018-12-29T01:08:01.294Z,3.15
2018-12-29T01:09:02.710Z,3.10
2018-12-29T01:10:01.278Z,3.10
2018-12-29T01:11:01.260Z,3.05
2018-12-29T01:12:01.266Z,3.16
2018-12-29T01:13:01.244Z,3.10
2018-12-29T01:14:01.227Z,3.07
2018-12-29T01:15:01.219Z,3.13
2018-12-29T01:16:01.209Z,3.07
2018-12-29T01:17:01.209Z,2.99
2018-12-29T01:18:01.186Z,3.08
2018-12-29T01:19:01.170Z,3.08
2018-12-29T01:20:01.160Z,3.15
2018-12-29T01:21:01.147Z,3.05
2018-12-29T01:22:01.153Z,3.08
2018-12-29T01:23:01.125Z,3.15
2018-12-29T01:24:01.113Z,3.15
2018-12-29T01:25:01.103Z,3.08
2018-12-29T01:26:01.091Z,3.10
2018-12-29T01:27:01.101Z,3.08
2018-12-29T01:28:01.070Z,3.12
2018-12-29T01:29:01.062Z,3.04
2018-12-29T01:30:01.045Z,3.12
2018-12-29T01:31:01.036Z,3.12
2018-12-29T01:32:01.065Z,3.15
2018-12-29T01:33:01.012Z,3.04
2018-12-29T01:34:01.001Z,3.07
2018-12-29T01:35:00.993Z,3.10
2018-12-29T01:36:00.977Z,3.10
2018-12-29T01:37:00.966Z,2.97
2018-12-29T01:38:00.971Z,2.94
2018-12-29T01:39:01.017Z,2.94
2018-12-29T01:40:01.022Z,3.05
2018-12-29T01:41:00.927Z,2.97
2018-12-29T01:42:00.909Z,2.97
2018-12-29T01:43:00.915Z,2.97
2018-12-29T01:44:00.887Z,2.98
2018-12-29T01:45:00.879Z,2.95
2018-12-29T01:46:00.868Z,2.94
2018-12-29T01:47:00.858Z,3.02
2018-12-29T01:48:00.858Z,2.97
2018-12-29T01:49:00.831Z,2.97
2018-12-29T01:50:00.820Z,2.90
2018-12-29T01:51:00.808Z,2.95
2018-12-29T01:52:00.797Z,2.94
2018-12-29T01:53:00.802Z,2.92
2018-12-29T01:54:00.778Z,2.94
2018-12-29T01:55:00.762Z,2.97
2018-12-29T01:56:00.751Z,2.97
2018-12-29T01:57:00.744Z,2.95
2018-12-29T01:58:00.753Z,2.97
2018-12-29T01:59:00.721Z,2.97
2018-12-29T02:00:00.711Z,2.98
2018-12-29T02:01:00.700Z,2.97
2018-12-29T02:02:00.685Z,2.95
2018-12-29T02:03:00.688Z,2.95
2018-12-29T02:04:00.661Z,3.01
2018-12-29T02:05:00.655Z,2.97
2018-12-29T02:06:00.639Z,2.97
2018-12-29T02:07:00.624Z,2.95
2018-12-29T02:08:00.634Z,2.95
2018-12-29T02:09:00.601Z,2.94
2018-12-29T02:10:00.589Z,2.95
2018-12-29T02:11:00.579Z,3.01
2018-12-29T02:12:00.571Z,2.98
2018-12-29T02:13:00.573Z,2.97
2018-12-29T02:14:00.548Z,2.95
2018-12-29T02:15:00.543Z,2.92
2018-12-29T02:16:00.521Z,2.94
2018-12-29T02:17:00.514Z,2.86
2018-12-29T02:18:00.514Z,2.95
2018-12-29T02:19:00.500Z,3.07
2018-12-29T02:20:00.478Z,2.97
2018-12-29T02:21:00.464Z,2.86
2018-12-29T02:22:00.453Z,2.92
2018-12-29T02:23:00.459Z,2.86
2018-12-29T02:24:00.432Z,2.90
2018-12-29T02:25:00.421Z,2.97
2018-12-29T02:26:00.432Z,2.98
2018-12-29T02:27:00.398Z,2.99
2018-12-29T02:28:00.401Z,2.95
2018-12-29T02:29:00.375Z,2.99
2018-12-29T02:30:00.384Z,2.98
2018-12-29T02:31:00.352Z,2.97
2018-12-29T02:32:00.340Z,2.94
2018-12-29T02:33:00.345Z,2.94
2018-12-29T02:34:00.317Z,3.07
2018-12-29T02:35:00.307Z,2.94
2018-12-29T02:36:00.301Z,2.98
2018-12-29T02:37:00.283Z,2.94
2018-12-29T02:38:00.288Z,2.87
2018-12-29T02:39:00.262Z,2.97
2018-12-29T02:40:00.257Z,2.89
2018-12-29T02:41:00.278Z,2.99
2018-12-29T02:42:00.226Z,2.99
2018-12-29T02:43:00.231Z,2.84
2018-12-29T02:44:00.204Z,2.92
2018-12-29T02:45:00.347Z,2.84
2018-12-29T02:46:00.182Z,2.84
2018-12-29T02:47:00.175Z,2.94
2018-12-29T02:48:00.171Z,2.94
2018-12-29T02:49:00.148Z,2.94
2018-12-29T02:50:00.380Z,2.87
2018-12-29T02:51:00.124Z,2.83
2018-12-29T02:52:00.118Z,2.87
2018-12-29T02:53:01.169Z,2.83
2018-12-29T02:54:00.090Z,2.94
2018-12-29T02:55:00.189Z,2.95
2018-12-29T02:56:00.067Z,2.99
2018-12-29T02:57:00.061Z,3.02
2018-12-29T02:58:00.062Z,2.94
2018-12-29T02:59:00.035Z,2.97
2018-12-29T03:00:00.026Z,3.01
2018-12-29T03:01:00.015Z,2.95
2018-12-29T03:01:59.999Z,3.02
2018-12-29T03:03:00.001Z,2.99
2018-12-29T03:03:59.963Z,2.99
2018-12-29T03:04:59.969Z,3.02
2018-12-29T03:05:59.954Z,2.97
2018-12-29T03:06:59.948Z,3.02
2018-12-29T03:07:59.946Z,3.10
2018-12-29T03:08:59.921Z,3.15
2018-12-29T03:09:59.909Z,2.99
2018-12-29T03:10:59.899Z,2.97
2018-12-29T03:11:59.886Z,2.99
2018-12-29T03:12:59.889Z,3.04
2018-12-29T03:13:59.869Z,2.99
2018-12-29T03:14:59.852Z,2.94
2018-12-29T03:15:59.851Z,2.98
2018-12-29T03:16:59.831Z,2.92
2018-12-29T03:17:59.834Z,2.99
2018-12-29T03:18:59.807Z,2.98
2018-12-29T03:19:59.799Z,3.13
2018-12-29T03:20:59.781Z,3.12
2018-12-29T03:21:59.773Z,3.12
2018-12-29T03:22:59.781Z,3.05
2018-12-29T03:23:59.748Z,3.16
2018-12-29T03:24:59.741Z,3.07
2018-12-29T03:25:59.737Z,3.08
2018-12-29T03:26:59.717Z,3.10
2018-12-29T03:27:59.721Z,3.17
2018-12-29T03:28:59.682Z,3.13
2018-12-29T03:29:59.682Z,3.07
2018-12-29T03:30:59.672Z,3.13
2018-12-29T03:31:59.657Z,3.05
2018-12-29T03:32:59.665Z,2.99
2018-12-29T03:33:59.633Z,3.08
2018-12-29T03:34:59.634Z,3.12
2018-12-29T03:35:59.641Z,3.16
2018-12-29T03:36:59.610Z,3.02
2018-12-29T03:37:59.637Z,2.97
2018-12-29T03:38:59.582Z,2.95
2018-12-29T03:39:59.568Z,3.02
2018-12-29T03:40:59.554Z,2.97
2018-12-29T03:41:59.546Z,2.98
2018-12-29T03:42:59.532Z,3.01
2018-12-29T03:43:59.536Z,2.97
2018-12-29T03:44:59.512Z,2.97
2018-12-29T03:45:59.509Z,2.94
2018-12-29T03:46:59.490Z,2.99
2018-12-29T03:47:59.475Z,2.89
2018-12-29T03:48:59.478Z,2.95
2018-12-29T03:49:59.452Z,2.97
2018-12-29T03:50:59.440Z,2.97
2018-12-29T03:51:59.429Z,2.98
2018-12-29T03:52:59.421Z,2.94
2018-12-29T03:53:59.424Z,2.97
2018-12-29T03:54:59.395Z,2.97
2018-12-29T03:55:59.386Z,2.94
2018-12-29T03:56:59.378Z,2.98
2018-12-29T03:57:59.361Z,2.98
2018-12-29T03:58:59.366Z,2.95
2018-12-29T03:59:59.343Z,2.98
2018-12-29T04:00:59.328Z,2.99
2018-12-29T04:01:59.317Z,2.97
2018-12-29T04:02:59.314Z,2.94
2018-12-29T04:03:59.308Z,2.98
2018-12-29T04:04:59.283Z,2.98
2018-12-29T04:05:59.273Z,2.99
2018-12-29T04:06:59.260Z,2.98
2018-12-29T04:07:59.248Z,2.89
2018-12-29T04:08:59.257Z,3.04
2018-12-29T04:09:59.227Z,2.86
2018-12-29T04:10:59.239Z,2.95
2018-12-29T04:11:59.205Z,2.97
2018-12-29T04:12:59.196Z,2.87
2018-12-29T04:13:59.201Z,2.95
2018-12-29T04:14:59.169Z,2.81
2018-12-29T04:15:59.174Z,2.95
2018-12-29T04:16:59.148Z,2.94
2018-12-29T04:17:59.136Z,2.98
2018-12-29T04:18:59.152Z,2.87
2018-12-29T04:19:59.115Z,2.84
2018-12-29T04:20:59.101Z,2.89
2018-12-29T04:21:59.095Z,2.81
2018-12-29T04:22:59.084Z,2.89
2018-12-29T04:23:59.079Z,2.94
2018-12-29T04:24:59.056Z,2.81
2018-12-29T04:25:59.069Z,2.74
2018-12-29T04:26:59.043Z,2.86
2018-12-29T04:27:59.022Z,2.83
2018-12-29T04:28:59.025Z,2.81
2018-12-29T04:29:59.001Z,2.80
2018-12-29T04:30:58.987Z,2.79
2018-12-29T04:31:58.980Z,2.76
2018-12-29T04:32:59.062Z,2.80
2018-12-29T04:33:58.970Z,2.80
2018-12-29T04:34:58.948Z,2.69
2018-12-29T04:35:58.933Z,2.69
2018-12-29T04:36:58.920Z,2.66
2018-12-29T04:37:58.910Z,2.66
2018-12-29T04:38:58.911Z,2.63
2018-12-29T04:39:58.888Z,2.61
2018-12-29T04:40:58.875Z,2.73
2018-12-29T04:41:58.859Z,2.69
2018-12-29T04:42:58.848Z,2.66
2018-12-29T04:43:58.857Z,2.62
2018-12-29T04:44:58.828Z,2.66
2018-12-29T04:46:05.063Z,2.61
2018-12-29T04:46:59.803Z,2.66
2018-12-29T04:47:58.791Z,2.68
2018-12-29T04:48:58.798Z,2.76
2018-12-29T04:49:58.774Z,2.65
2018-12-29T04:50:58.762Z,2.69
2018-12-29T04:51:58.746Z,2.71
2018-12-29T04:52:58.735Z,2.66
2018-12-29T04:53:58.739Z,2.58
2018-12-29T04:54:58.730Z,2.66
2018-12-29T04:55:58.701Z,2.62
2018-12-29T04:56:58.694Z,2.71
2018-12-29T04:57:58.678Z,2.68
2018-12-29T04:58:58.683Z,2.66
2018-12-29T04:59:58.656Z,2.73
2018-12-29T05:00:58.644Z,2.69
2018-12-29T05:01:58.635Z,2.63
2018-12-29T05:02:58.621Z,2.73
2018-12-29T05:03:58.636Z,2.71
2018-12-29T05:04:58.604Z,2.71
2018-12-29T05:05:58.593Z,2.69
2018-12-29T05:06:58.577Z,2.73
2018-12-29T05:07:58.566Z,2.73
2018-12-29T05:08:58.569Z,2.69
2018-12-29T05:09:58.544Z,2.66
2018-12-29T05:10:58.537Z,2.71
2018-12-29T05:11:58.521Z,2.63
2018-12-29T05:12:58.507Z,2.68
2018-12-29T05:13:58.515Z,2.71
2018-12-29T05:14:58.486Z,2.68
2018-12-29T05:15:58.481Z,2.69
2018-12-29T05:16:58.464Z,2.69
2018-12-29T05:17:58.452Z,2.76
2018-12-29T05:18:58.456Z,2.71
2018-12-29T05:19:58.430Z,2.73
2018-12-29T05:20:58.417Z,2.66
2018-12-29T05:21:58.406Z,2.71
2018-12-29T05:22:58.396Z,2.68
2018-12-29T05:23:58.395Z,2.66
2018-12-29T05:24:58.375Z,2.65
2018-12-29T05:25:58.361Z,2.63
2018-12-29T05:26:58.350Z,2.62
2018-12-29T05:27:58.342Z,2.62
2018-12-29T05:28:58.343Z,2.62
2018-12-29T05:29:58.321Z,2.58
2018-12-29T05:30:58.305Z,2.48
2018-12-29T05:31:58.293Z,2.61
2018-12-29T05:32:58.282Z,2.50
2018-12-29T05:33:58.287Z,2.58
2018-12-29T05:34:58.259Z,2.59
2018-12-29T05:35:58.247Z,2.53
2018-12-29T05:36:58.236Z,2.50
2018-12-29T05:37:58.225Z,2.53
2018-12-29T05:38:58.230Z,2.51
2018-12-29T05:39:58.204Z,2.50
2018-12-29T05:40:58.200Z,2.47
2018-12-29T05:41:58.181Z,2.51
2018-12-29T05:42:58.169Z,2.50
2018-12-29T05:43:58.190Z,2.53
2018-12-29T05:44:58.146Z,2.55
2018-12-29T05:45:58.139Z,2.51
2018-12-29T05:46:58.127Z,2.45
2018-12-29T05:47:58.116Z,2.47
2018-12-29T05:48:58.105Z,2.37
2018-12-29T05:49:58.107Z,2.38
2018-12-29T05:50:58.085Z,2.43
2018-12-29T05:51:58.067Z,2.45
2018-12-29T05:52:58.055Z,2.32
2018-12-29T05:53:58.046Z,2.33
2018-12-29T05:54:58.047Z,2.30
2018-12-29T05:55:58.021Z,2.27
2018-12-29T05:56:58.010Z,2.22
2018-12-29T05:57:58.008Z,2.27
2018-12-29T05:58:57.988Z,2.23
2018-12-29T05:59:57.988Z,2.25
2018-12-29T06:00:57.968Z,2.22
2018-12-29T06:01:57.954Z,2.25
2018-12-29T06:02:57.931Z,2.20
2018-12-29T06:03:57.930Z,2.29
2018-12-29T06:04:57.932Z,2.23
2018-12-29T06:05:57.913Z,2.23
2018-12-29T06:06:57.897Z,2.30
2018-12-29T06:07:57.902Z,2.11
2018-12-29T06:08:57.890Z,2.23
2018-12-29T06:09:57.875Z,2.26
2018-12-29T06:10:57.856Z,2.26
2018-12-29T06:11:57.840Z,2.20
2018-12-29T06:12:57.832Z,2.20
2018-12-29T06:13:57.821Z,2.20
2018-12-29T06:14:57.827Z,2.20
2018-12-29T06:15:57.797Z,2.20
2018-12-29T06:16:57.791Z,2.12
2018-12-29T06:17:57.773Z,2.22
2018-12-29T06:18:57.758Z,2.25
2018-12-29T06:19:57.761Z,2.14
2018-12-29T06:20:57.739Z,2.19
2018-12-29T06:21:57.723Z,2.27
2018-12-29T06:22:57.711Z,2.18
2018-12-29T06:23:57.705Z,2.23
2018-12-29T06:24:57.702Z,2.19
2018-12-29T06:25:57.677Z,2.20
2018-12-29T06:26:57.666Z,2.15
2018-12-29T06:27:57.661Z,2.19
2018-12-29T06:28:57.646Z,2.22
2018-12-29T06:29:57.648Z,2.18
2018-12-29T06:30:57.620Z,2.20
2018-12-29T06:31:57.609Z,2.23
2018-12-29T06:32:57.602Z,2.25
2018-12-29T06:33:57.588Z,2.23
2018-12-29T06:34:57.592Z,2.18
2018-12-29T06:35:57.564Z,2.18
2018-12-29T06:36:57.554Z,2.29
2018-12-29T06:37:57.545Z,2.19
2018-12-29T06:38:57.531Z,2.14
2018-12-29T06:39:57.534Z,2.26
2018-12-29T06:40:57.510Z,2.20
2018-12-29T06:41:57.496Z,2.25
2018-12-29T06:42:57.485Z,2.23
2018-12-29T06:43:57.474Z,2.26
2018-12-29T06:44:57.478Z,2.33
2018-12-29T06:45:57.451Z,2.33
2018-12-29T06:46:57.444Z,2.26
2018-12-29T06:47:57.435Z,2.37
2018-12-29T06:48:57.417Z,2.27
2018-12-29T06:49:57.425Z,2.26
2018-12-29T06:50:57.394Z,2.29
2018-12-29T06:51:57.382Z,2.23
2018-12-29T06:52:57.372Z,2.25
2018-12-29T06:53:57.367Z,2.27
2018-12-29T06:54:57.367Z,2.29
2018-12-29T06:55:57.342Z,2.29
2018-12-29T06:56:57.326Z,2.29
2018-12-29T06:57:57.316Z,2.37
2018-12-29T06:58:57.303Z,2.26
2018-12-29T06:59:57.324Z,2.30
2018-12-29T07:00:57.286Z,2.29
2018-12-29T07:01:57.270Z,2.27
2018-12-29T07:02:57.262Z,2.40
2018-12-29T07:03:57.247Z,2.27
2018-12-29T07:04:57.260Z,2.33
2018-12-29T07:05:57.226Z,2.30
2018-12-29T07:06:57.221Z,2.25
2018-12-29T07:07:57.202Z,2.25
2018-12-29T07:08:57.191Z,2.37
2018-12-29T07:09:57.195Z,2.40
2018-12-29T07:10:57.168Z,2.38
2018-12-29T07:11:57.157Z,2.36
2018-12-29T07:12:57.150Z,2.37
2018-12-29T07:13:57.133Z,2.33
2018-12-29T07:14:57.156Z,2.33
2018-12-29T07:15:57.111Z,2.33
2018-12-29T07:16:57.100Z,2.47
2018-12-29T07:17:57.092Z,2.41
2018-12-29T07:18:57.078Z,2.41
2018-12-29T07:19:57.078Z,2.37
2018-12-29T07:20:57.055Z,2.43
2018-12-29T07:21:57.047Z,2.44
2018-12-29T07:22:57.038Z,2.48
2018-12-29T07:23:57.020Z,2.32
2018-12-29T07:24:57.026Z,2.36
2018-12-29T07:25:57.000Z,2.36
2018-12-29T07:26:56.987Z,2.38
2018-12-29T07:27:56.979Z,2.43
2018-12-29T07:28:56.966Z,2.37
2018-12-29T07:29:56.970Z,2.40
2018-12-29T07:30:56.949Z,2.40
2018-12-29T07:31:56.930Z,2.33
2018-12-29T07:32:56.918Z,2.43
2018-12-29T07:33:56.914Z,2.43
2018-12-29T07:34:56.909Z,2.40
2018-12-29T07:35:56.893Z,2.40
2018-12-29T07:36:56.875Z,2.43
2018-12-29T07:37:56.861Z,2.38
2018-12-29T07:38:57.574Z,2.41
2018-12-29T07:39:58.036Z,2.50
2018-12-29T07:40:56.829Z,2.37
2018-12-29T07:41:56.816Z,2.41
2018-12-29T07:42:56.808Z,2.47
2018-12-29T07:43:56.795Z,2.51
2018-12-29T07:44:56.800Z,2.48
2018-12-29T07:45:56.771Z,2.45
2018-12-29T07:46:56.761Z,2.44
2018-12-29T07:47:56.748Z,2.48
2018-12-29T07:48:56.739Z,2.51
2018-12-29T07:49:56.763Z,2.51
2018-12-29T07:50:56.714Z,2.48
2018-12-29T07:51:56.709Z,2.51
2018-12-29T07:52:56.692Z,2.51
2018-12-29T07:53:57.835Z,2.51
2018-12-29T07:54:56.670Z,2.58
2018-12-29T07:55:56.673Z,2.59
2018-12-29T07:56:56.646Z,2.58
2018-12-29T07:57:56.638Z,2.63
2018-12-29T07:58:56.625Z,2.61
2018-12-29T07:59:56.618Z,2.62
2018-12-29T08:00:56.615Z,2.56
2018-12-29T08:01:56.590Z,2.62
2018-12-29T08:02:56.578Z,2.58
2018-12-29T08:03:56.567Z,2.62
2018-12-29T08:04:56.572Z,2.68
2018-12-29T08:05:56.558Z,2.62
2018-12-29T08:06:56.531Z,2.61
2018-12-29T08:07:56.527Z,2.61
2018-12-29T08:08:56.511Z,2.66
2018-12-29T08:09:56.501Z,2.61
2018-12-29T08:10:56.502Z,2.59
2018-12-29T08:11:56.474Z,2.63
2018-12-29T08:12:56.462Z,2.53
2018-12-29T08:13:56.454Z,2.68
2018-12-29T08:14:56.441Z,2.68
2018-12-29T08:15:56.444Z,2.73
2018-12-29T08:16:56.950Z,2.66
2018-12-29T08:17:56.410Z,2.80
2018-12-29T08:18:56.392Z,2.77
2018-12-29T08:19:56.382Z,2.80
2018-12-29T08:20:56.399Z,2.76
2018-12-29T08:21:56.359Z,2.74
2018-12-29T08:22:56.348Z,2.74
2018-12-29T08:23:56.337Z,2.84
2018-12-29T08:24:56.326Z,2.94
2018-12-29T08:25:56.326Z,2.89
2018-12-29T08:26:56.305Z,2.94
2018-12-29T08:27:56.291Z,2.90
2018-12-29T08:28:56.280Z,2.90
2018-12-29T08:29:56.268Z,2.89
2018-12-29T08:30:56.272Z,2.90
2018-12-29T08:31:56.250Z,2.89
2018-12-29T08:32:56.238Z,2.89
2018-12-29T08:33:56.223Z,2.92
2018-12-29T08:34:56.216Z,2.90
2018-12-29T08:35:56.215Z,2.87
2018-12-29T08:36:56.188Z,2.89
2018-12-29T08:37:56.178Z,2.97
2018-12-29T08:38:56.166Z,2.95
2018-12-29T08:39:56.154Z,2.99
2018-12-29T08:40:56.159Z,2.95
2018-12-29T08:41:56.132Z,2.92
2018-12-29T08:42:56.120Z,2.97
2018-12-29T08:43:56.109Z,2.99
2018-12-29T08:44:56.105Z,2.98
2018-12-29T08:45:56.098Z,3.15
2018-12-29T08:46:56.097Z,3.04
2018-12-29T08:47:56.064Z,3.04
2018-12-29T08:48:56.148Z,3.10
2018-12-29T08:49:56.046Z,3.10
2018-12-29T08:50:56.046Z,3.12
2018-12-29T08:51:56.020Z,3.15
2018-12-29T08:52:55.995Z,3.16
2018-12-29T08:53:56.033Z,3.15
2018-12-29T08:54:55.985Z,3.12
2018-12-29T08:55:55.986Z,3.12
2018-12-29T08:56:55.966Z,3.17
2018-12-29T08:57:55.952Z,3.17
2018-12-29T08:58:56.014Z,3.20
2018-12-29T08:59:55.932Z,3.20
2018-12-29T09:00:55.933Z,3.22
2018-12-29T09:01:55.922Z,3.23
2018-12-29T09:02:55.894Z,3.39
2018-12-29T09:03:55.887Z,3.31
2018-12-29T09:04:55.873Z,3.34
2018-12-29T09:05:55.874Z,3.34
2018-12-29T09:06:55.850Z,3.45
2018-12-29T09:07:55.840Z,3.52
2018-12-29T09:08:55.828Z,3.53
2018-12-29T09:09:55.815Z,3.60
2018-12-29T09:10:55.816Z,3.59
2018-12-29T09:11:55.793Z,3.52
2018-12-29T09:12:55.781Z,3.60
2018-12-29T09:13:55.771Z,3.62
2018-12-29T09:14:55.760Z,3.59
2018-12-29T09:15:55.766Z,3.49
2018-12-29T09:16:55.736Z,3.62
2018-12-29T09:17:55.726Z,3.60
2018-12-29T09:18:55.715Z,3.56
2018-12-29T09:19:55.704Z,3.59
2018-12-29T09:20:55.704Z,3.60
2018-12-29T09:21:55.679Z,3.53
2018-12-29T09:22:55.674Z,3.56
2018-12-29T09:23:55.657Z,3.49
2018-12-29T09:24:55.646Z,3.57
2018-12-29T09:25:55.647Z,3.50
2018-12-29T09:26:55.630Z,3.50
2018-12-29T09:27:55.615Z,3.49
2018-12-29T09:28:55.600Z,3.49
2018-12-29T09:29:55.591Z,3.50
2018-12-29T09:30:55.598Z,3.60
2018-12-29T09:31:55.566Z,3.56
2018-12-29T09:32:55.563Z,3.60
2018-12-29T09:33:55.543Z,3.68
2018-12-29T09:34:55.538Z,3.70
2018-12-29T09:35:56.330Z,3.71
2018-12-29T09:36:55.515Z,3.88
2018-12-29T09:37:55.499Z,3.78
2018-12-29T09:38:55.489Z,3.81
2018-12-29T09:39:55.472Z,3.86
2018-12-29T09:40:55.485Z,3.84
2018-12-29T09:41:55.453Z,3.78
2018-12-29T09:42:55.457Z,3.81
2018-12-29T09:43:55.430Z,3.89
2018-12-29T09:44:55.415Z,3.86
2018-12-29T09:45:55.425Z,3.89
2018-12-29T09:46:55.393Z,3.89
2018-12-29T09:47:55.382Z,3.98
2018-12-29T09:48:55.370Z,3.96
2018-12-29T09:49:55.367Z,3.99
2018-12-29T09:50:55.363Z,4.06
2018-12-29T09:51:55.336Z,3.99
2018-12-29T09:52:55.328Z,3.93
2018-12-29T09:53:55.313Z,4.07
2018-12-29T09:54:55.302Z,4.08
2018-12-29T09:55:55.322Z,4.06
2018-12-29T09:56:55.283Z,4.07
2018-12-29T09:57:55.270Z,4.13
2018-12-29T09:58:55.270Z,4.07
2018-12-29T09:59:55.246Z,4.06
2018-12-29T10:00:55.236Z,3.98
2018-12-29T10:01:55.236Z,4.00
2018-12-29T10:02:55.215Z,3.96
2018-12-29T10:03:55.201Z,3.93
2018-12-29T10:04:55.188Z,4.06
2018-12-29T10:05:55.177Z,3.96
2018-12-29T10:06:55.191Z,4.04
2018-12-29T10:07:55.159Z,4.10
2018-12-29T10:08:55.144Z,4.06
2018-12-29T10:09:55.139Z,3.90
2018-12-29T10:10:55.123Z,3.93
2018-12-29T10:11:55.134Z,3.99
2018-12-29T10:12:55.098Z,4.11
2018-12-29T10:13:55.086Z,3.96
2018-12-29T10:14:55.075Z,3.95
2018-12-29T10:15:55.064Z,4.00
2018-12-29T10:16:55.070Z,3.98
2018-12-29T10:17:55.040Z,3.92
2018-12-29T10:18:55.034Z,3.98
2018-12-29T10:19:55.021Z,4.04
2018-12-29T10:20:55.023Z,4.02
2018-12-29T10:21:55.013Z,3.93
2018-12-29T10:22:54.987Z,3.98
2018-12-29T10:23:54.978Z,3.81
2018-12-29T10:24:54.964Z,3.96
2018-12-29T10:25:54.964Z,3.82
2018-12-29T10:26:54.959Z,3.89
2018-12-29T10:27:54.934Z,3.92
2018-12-29T10:28:54.922Z,3.93
2018-12-29T10:29:54.907Z,3.98
2018-12-29T10:30:54.899Z,3.98
2018-12-29T10:31:54.899Z,4.02
2018-12-29T10:32:54.872Z,3.96
2018-12-29T10:33:55.439Z,4.07
2018-12-29T10:34:54.865Z,4.06
2018-12-29T10:35:54.837Z,4.13
2018-12-29T10:36:54.838Z,4.11
2018-12-29T10:37:54.818Z,4.14
2018-12-29T10:38:54.804Z,4.11
2018-12-29T10:39:54.794Z,4.14
2018-12-29T10:40:54.781Z,4.10
2018-12-29T10:41:54.786Z,3.92
2018-12-29T10:42:54.761Z,3.92
2018-12-29T10:43:54.750Z,3.89
2018-12-29T10:44:54.744Z,3.92
2018-12-29T10:45:54.726Z,4.00
2018-12-29T10:46:54.734Z,3.92
2018-12-29T10:47:54.703Z,3.98
2018-12-29T10:48:54.687Z,3.93
2018-12-29T10:49:54.677Z,3.95
2018-12-29T10:50:54.667Z,3.96
2018-12-29T10:51:54.670Z,4.13
2018-12-29T10:52:54.640Z,4.08
2018-12-29T10:53:54.635Z,4.08
2018-12-29T10:54:54.620Z,4.11
2018-12-29T10:55:54.607Z,4.17
2018-12-29T10:56:54.614Z,4.04
2018-12-29T10:57:54.587Z,4.13
2018-12-29T10:58:54.574Z,4.16
2018-12-29T10:59:54.579Z,4.24
2018-12-29T11:00:54.552Z,4.32
2018-12-29T11:01:54.571Z,4.25
2018-12-29T11:02:54.528Z,4.24
2018-12-29T11:03:54.521Z,4.25
2018-12-29T11:04:54.506Z,4.28
2018-12-29T11:05:54.499Z,4.24
2018-12-29T11:06:54.498Z,4.24
2018-12-29T11:07:54.487Z,4.25
2018-12-29T11:08:54.459Z,4.28
2018-12-29T11:09:54.449Z,4.31
2018-12-29T11:10:54.439Z,4.34
2018-12-29T11:11:54.437Z,4.34
2018-12-29T11:12:54.415Z,4.34
2018-12-29T11:13:54.406Z,4.35
2018-12-29T11:14:54.393Z,4.34
2018-12-29T11:15:54.381Z,4.38
2018-12-29T11:16:54.381Z,4.38
2018-12-29T11:17:54.358Z,4.32
2018-12-29T11:18:54.350Z,4.36
2018-12-29T11:19:54.341Z,4.34
2018-12-29T11:20:54.325Z,4.46
2018-12-29T11:21:54.326Z,4.51
2018-12-29T11:22:54.302Z,4.43
2018-12-29T11:23:54.290Z,4.47
2018-12-29T11:24:54.278Z,4.47
2018-12-29T11:25:54.269Z,4.51
2018-12-29T11:26:54.275Z,4.56
2018-12-29T11:27:54.246Z,4.47
2018-12-29T11:28:54.233Z,4.67
2018-12-29T11:29:54.224Z,4.65
2018-12-29T11:30:54.211Z,4.69
2018-12-29T11:31:54.231Z,4.65
2018-12-29T11:32:54.201Z,4.61
2018-12-29T11:33:54.177Z,4.62
2018-12-29T11:34:54.165Z,4.67
2018-12-29T11:35:54.155Z,4.68
2018-12-29T11:36:54.159Z,4.68
2018-12-29T11:37:54.132Z,4.68
2018-12-29T11:38:54.113Z,4.77
2018-12-29T11:39:54.109Z,4.80
2018-12-29T11:40:54.099Z,4.74
2018-12-29T11:41:54.100Z,4.83
2018-12-29T11:42:54.076Z,4.79
2018-12-29T11:43:54.059Z,4.87
2018-12-29T11:44:54.050Z,4.91
2018-12-29T11:45:54.042Z,4.90
2018-12-29T11:46:54.043Z,4.94
2018-12-29T11:47:54.014Z,4.99
2018-12-29T11:48:54.008Z,4.94
2018-12-29T11:49:53.992Z,5.01
2018-12-29T11:50:53.991Z,4.90
2018-12-29T11:51:53.986Z,4.93
2018-12-29T11:52:53.959Z,5.02
2018-12-29T11:53:53.947Z,4.94
2018-12-29T11:54:53.940Z,4.96
2018-12-29T11:55:53.928Z,5.01
2018-12-29T11:56:53.924Z,4.88
2018-12-29T11:57:53.901Z,4.90
2018-12-29T11:58:53.891Z,4.87
2018-12-29T11:59:53.884Z,4.91
2018-12-29T12:00:53.868Z,4.86
2018-12-29T12:01:53.884Z,4.77
2018-12-29T12:02:53.845Z,4.83
2018-12-29T12:03:53.833Z,4.77
2018-12-29T12:04:53.823Z,4.77
2018-12-29T12:05:53.810Z,4.80
2018-12-29T12:06:53.799Z,4.79
2018-12-29T12:07:53.801Z,4.79
2018-12-29T12:08:53.781Z,4.64
2018-12-29T12:09:53.765Z,4.68
2018-12-29T12:10:53.756Z,4.77
2018-12-29T12:11:53.742Z,4.67
2018-12-29T12:12:53.760Z,4.72
2018-12-29T12:13:53.719Z,4.71
2018-12-29T12:14:53.711Z,4.79
2018-12-29T12:15:53.698Z,4.77
2018-12-29T12:16:53.686Z,4.79
2018-12-29T12:17:57.425Z,4.83
2018-12-29T12:18:53.663Z,4.80
2018-12-29T12:19:53.653Z,4.80
2018-12-29T12:20:53.640Z,4.83
2018-12-29T12:21:53.629Z,4.83
2018-12-29T12:22:53.630Z,4.88
2018-12-29T12:23:53.606Z,4.83
2018-12-29T12:24:53.597Z,4.86
2018-12-29T12:25:53.585Z,4.90
2018-12-29T12:26:53.573Z,4.86
2018-12-29T12:27:53.574Z,4.90
2018-12-29T12:28:53.551Z,4.90
2018-12-29T12:29:53.539Z,4.91
2018-12-29T12:30:53.527Z,4.88
2018-12-29T12:31:53.514Z,4.91
2018-12-29T12:32:53.517Z,4.88
2018-12-29T12:33:53.493Z,4.84
2018-12-29T12:34:53.481Z,4.90
2018-12-29T12:35:53.468Z,4.91
2018-12-29T12:36:53.455Z,4.96
2018-12-29T12:37:53.464Z,4.99
2018-12-29T12:38:53.437Z,5.02
2018-12-29T12:39:53.421Z,4.96
2018-12-29T12:40:53.414Z,4.99
2018-12-29T12:41:53.400Z,5.05
2018-12-29T12:42:53.404Z,4.99
2018-12-29T12:43:53.377Z,5.05
2018-12-29T12:44:53.385Z,4.99
2018-12-29T12:45:53.353Z,5.01
2018-12-29T12:46:53.348Z,5.06
2018-12-29T12:47:53.350Z,5.02
2018-12-29T12:48:53.322Z,5.14
2018-12-29T12:49:53.312Z,5.11
2018-12-29T12:50:53.297Z,5.15
2018-12-29T12:51:53.302Z,5.08
2018-12-29T12:52:53.300Z,5.09
2018-12-29T12:53:53.263Z,5.09
2018-12-29T12:54:53.258Z,5.17
2018-12-29T12:55:53.240Z,5.12
2018-12-29T12:56:53.229Z,5.06
2018-12-29T12:57:53.230Z,5.05
2018-12-29T12:58:53.207Z,5.09
2018-12-29T12:59:53.195Z,5.17
2018-12-29T13:00:53.183Z,5.08
2018-12-29T13:01:53.177Z,5.14
2018-12-29T13:02:53.173Z,5.11
2018-12-29T13:03:53.151Z,5.15
2018-12-29T13:04:53.141Z,5.08
2018-12-29T13:05:53.132Z,5.20
2018-12-29T13:06:53.120Z,5.06
2018-12-29T13:07:53.117Z,5.14
2018-12-29T13:08:53.094Z,5.19
2018-12-29T13:09:53.085Z,5.12
2018-12-29T13:10:53.071Z,5.11
2018-12-29T13:11:53.059Z,5.17
2018-12-29T13:12:53.060Z,5.06
2018-12-29T13:13:53.039Z,5.14
2018-12-29T13:14:53.028Z,5.22
2018-12-29T13:15:53.019Z,5.15
2018-12-29T13:16:53.003Z,5.06
2018-12-29T13:17:53.008Z,5.08